createdAt,value
2024-02-13T00:00:12.030Z,99250.44
2024-02-13T00:02:39.925Z,99253.13
2024-02-13T00:05:10.038Z,99245.84
2024-02-13T00:07:39.791Z,99254.75
2024-02-13T00:10:09.740Z,99254.75
2024-02-13T00:12:37.765Z,99259.09
2024-02-13T00:15:10.029Z,99256.63
2024-02-13T00:17:38.086Z,99266.41
2024-02-13T00:20:09.470Z,99264.50
2024-02-13T00:22:38.892Z,99258.28
2024-02-13T00:25:07.798Z,99260.16
2024-02-13T00:27:36.650Z,99267.44
2024-02-13T00:30:05.203Z,99268.50
2024-02-13T00:32:33.474Z,99264.75
2024-02-13T00:41:57.515Z,99267.94
2024-02-13T00:44:25.470Z,99276.03
2024-02-13T00:46:53.614Z,99274.41
2024-02-13T00:59:58.321Z,99272.75
2024-02-13T01:02:26.192Z,99266.53
2024-02-13T01:15:21.653Z,99263.59
2024-02-13T01:17:49.676Z,99262.53
2024-02-13T01:20:54.698Z,99262.53
2024-02-13T01:23:23.210Z,99267.94
2024-02-13T01:25:51.411Z,99267.94
2024-02-13T01:28:21.113Z,99270.03
2024-02-13T01:30:50.487Z,99269.81
2024-02-13T01:33:18.815Z,99270.03
2024-02-13T01:35:46.863Z,99274.63
2024-02-13T01:38:14.827Z,99272.16
2024-02-13T01:40:42.676Z,99277.34
2024-02-13T01:43:10.526Z,99283.81
2024-02-13T01:45:38.365Z,99272.16
2024-02-13T01:48:08.432Z,99272.16
2024-02-13T02:13:43.973Z,99276.19
2024-02-13T02:16:13.220Z,99285.09
2024-02-13T02:18:42.304Z,99288.63
2024-02-13T02:23:38.231Z,99281.34
2024-02-13T02:26:08.198Z,99282.16
2024-02-13T02:28:36.158Z,99281.34
2024-02-13T02:31:04.343Z,99281.34
2024-02-13T02:33:32.368Z,99287.53
2024-02-13T02:36:00.290Z,99285.09
2024-02-13T02:38:28.217Z,99287.81
2024-02-13T02:40:56.081Z,99292.38
2024-02-13T02:43:25.359Z,99291.53
2024-02-13T02:45:53.188Z,99292.63
2024-02-13T02:48:21.224Z,99299.66
2024-02-13T03:04:48.340Z,99321.72
2024-02-13T03:07:16.147Z,99309.03
2024-02-13T03:09:44.048Z,99324.44
2024-02-13T03:12:12.555Z,99318.44
2024-02-13T03:14:40.460Z,99318.44
2024-02-13T03:17:08.253Z,99326.53
2024-02-13T03:19:36.246Z,99322.81
2024-02-13T03:22:24.111Z,99332.53
2024-02-13T03:24:51.945Z,99338.75
2024-02-13T03:27:19.772Z,99332.53
2024-02-13T03:29:47.682Z,99339.59
2024-02-13T03:32:15.660Z,99342.28
2024-02-13T03:34:43.533Z,99343.91
2024-02-13T03:48:36.069Z,99354.13
2024-02-13T03:54:37.282Z,99353.53
2024-02-13T03:57:05.511Z,99367.88
2024-02-13T03:59:33.404Z,99357.31
2024-02-13T04:02:01.368Z,99360.00
2024-02-13T04:04:29.169Z,99368.31
2024-02-13T04:07:16.848Z,99367.28
2024-02-13T04:09:46.060Z,99366.69
2024-02-13T04:12:13.928Z,99378.31
2024-02-13T04:14:41.880Z,99372.91
2024-02-13T04:17:10.441Z,99378.31
2024-02-13T04:19:40.369Z,99372.91
2024-02-13T04:22:09.085Z,99379.38
2024-02-13T04:24:36.918Z,99382.06
2024-02-13T04:27:06.687Z,99375.88
2024-02-13T04:29:34.543Z,99376.69
2024-02-13T04:32:02.894Z,99380.41
2024-02-13T04:34:32.087Z,99375.03
2024-02-13T04:47:38.471Z,99372.81
2024-02-13T04:50:08.371Z,99371.75
2024-02-13T04:56:37.700Z,99370.09
2024-02-13T04:59:05.733Z,99378.19
2024-02-13T05:01:37.466Z,99385.44
2024-02-13T05:04:24.273Z,99380.06
2024-02-13T05:10:42.756Z,99387.97
2024-02-13T05:13:10.671Z,99391.69
2024-02-13T05:15:38.883Z,99391.47
2024-02-13T05:18:07.936Z,99394.16
2024-02-13T05:42:24.233Z,99428.19
2024-02-13T05:44:53.495Z,99439.25
2024-02-13T05:47:23.138Z,99438.97
2024-02-13T05:49:51.060Z,99437.56
2024-02-13T05:59:42.831Z,99465.59
2024-02-13T06:02:12.099Z,99471.00
2024-02-13T06:04:39.889Z,99468.53
2024-02-13T06:10:40.947Z,99477.69
2024-02-13T06:13:08.810Z,99473.09
2024-02-13T06:15:38.132Z,99473.09
2024-02-13T06:18:08.108Z,99479.31
2024-02-13T06:20:36.057Z,99485.56
2024-02-13T06:23:03.923Z,99492.59
2024-02-13T06:25:31.818Z,99500.47
2024-02-13T06:27:59.639Z,99497.53
2024-02-13T06:30:28.012Z,99508.94
2024-02-13T06:32:57.238Z,99510.81
2024-02-13T06:35:26.857Z,99511.63
2024-02-13T06:38:02.015Z,99515.97
2024-02-13T06:40:29.911Z,99520.31
2024-02-13T06:42:58.390Z,99531.13
2024-02-13T06:45:28.544Z,99534.84
2024-02-13T06:47:56.880Z,99536.50
2024-02-13T06:50:26.260Z,99535.66
2024-02-13T06:56:25.958Z,99546.47
2024-02-13T06:58:53.776Z,99546.25
2024-02-13T07:03:49.891Z,99550.56
2024-02-13T07:13:23.397Z,99559.53
2024-02-13T07:15:51.275Z,99558.22
2024-02-13T07:18:19.243Z,99573.34
2024-02-13T07:20:47.160Z,99569.59
2024-02-13T07:23:14.991Z,99575.59
2024-02-13T07:25:42.828Z,99579.91
2024-02-13T07:28:10.644Z,99578.63
2024-02-13T07:30:39.852Z,99578.41
2024-02-13T07:33:07.757Z,99577.34
2024-02-13T07:35:35.675Z,99568.19
2024-02-13T07:38:05.780Z,99577.94
2024-02-13T07:40:33.669Z,99567.72
2024-02-13T07:43:01.458Z,99570.19
2024-02-13T07:45:30.088Z,99572.03
2024-02-13T07:48:02.970Z,99577.22
2024-02-13T07:50:31.024Z,99562.44
2024-02-13T07:52:58.923Z,99568.41
2024-02-13T07:55:26.722Z,99576.53
2024-02-13T07:57:55.940Z,99567.94
2024-02-13T08:00:25.297Z,99578.50
2024-02-13T08:02:54.668Z,99576.97
2024-02-13T08:05:24.101Z,99578.16
2024-02-13T08:08:23.327Z,99576.00
2024-02-13T08:10:51.195Z,99580.38
2024-02-13T08:13:19.079Z,99578.50
2024-02-13T08:15:48.647Z,99571.81
2024-02-13T08:18:19.316Z,99586.72
2024-02-13T08:20:48.846Z,99592.94
2024-02-13T08:27:21.876Z,99590.00
2024-02-13T08:29:51.836Z,99593.75
2024-02-13T08:32:20.440Z,99589.16
2024-02-13T08:34:48.392Z,99599.16
2024-02-13T08:37:23.556Z,99597.25
2024-02-13T08:39:51.366Z,99601.38
2024-02-13T08:42:19.188Z,99612.75
2024-02-13T08:44:47.016Z,99611.13
2024-02-13T08:47:15.363Z,99615.94
2024-02-13T08:49:43.516Z,99622.41
2024-02-13T08:59:07.993Z,99638.50
2024-02-13T09:01:35.916Z,99627.72
2024-02-13T09:04:03.902Z,99625.44
2024-02-13T09:20:44.024Z,99627.94
2024-02-13T09:26:43.780Z,99633.34
2024-02-13T09:29:11.672Z,99642.03
2024-02-13T09:31:39.477Z,99638.50
2024-02-13T09:34:08.010Z,99641.22
2024-02-13T09:36:38.806Z,99644.94
2024-02-13T09:39:06.717Z,99637.91
2024-02-13T09:41:34.576Z,99638.97
2024-02-13T09:44:03.700Z,99647.06
2024-02-13T09:46:32.129Z,99643.78
2024-02-13T09:49:00.187Z,99648.38
2024-02-13T09:51:28.150Z,99648.59
2024-02-13T09:53:57.623Z,99654.22
2024-02-13T09:56:25.538Z,99657.19
2024-02-13T09:58:55.551Z,99656.38
2024-02-13T10:01:23.612Z,99667.38
2024-02-13T10:03:51.497Z,99663.88
2024-02-13T10:06:19.500Z,99667.63
2024-02-13T10:08:52.833Z,99664.09
2024-02-13T10:11:30.637Z,99666.78
2024-02-13T10:13:58.436Z,99662.47
2024-02-13T10:16:27.192Z,99666.78
2024-02-13T10:18:55.711Z,99662.47
2024-02-13T10:21:27.444Z,99667.88
2024-02-13T10:24:08.401Z,99668.91
2024-02-13T10:26:38.732Z,99673.28
2024-02-13T10:29:08.300Z,99671.59
2024-02-13T10:31:37.893Z,99672.44
2024-02-13T10:34:08.721Z,99674.31
2024-02-13T10:36:37.218Z,99678.88
2024-02-13T10:39:23.481Z,99685.09
2024-02-13T10:41:52.703Z,99682.66
2024-02-13T10:44:23.890Z,99682.66
2024-02-13T10:46:52.356Z,99687.25
2024-02-13T10:49:22.915Z,99685.56
2024-02-13T10:51:50.740Z,99684.75
2024-02-13T10:54:55.933Z,99683.94
2024-02-13T10:57:25.225Z,99684.16
2024-02-13T10:59:53.159Z,99690.41
2024-02-13T11:02:21.132Z,99684.16
2024-02-13T11:04:50.225Z,99693.34
2024-02-13T11:07:18.397Z,99695.22
2024-02-13T11:09:46.338Z,99687.13
2024-02-13T11:12:14.215Z,99684.41
2024-02-13T11:14:44.197Z,99682.75
2024-02-13T11:17:14.705Z,99684.41
2024-02-13T11:19:45.963Z,99685.22
2024-02-13T11:22:19.371Z,99685.22
2024-02-13T11:24:50.319Z,99681.72
2024-02-13T11:27:27.097Z,99684.41
2024-02-13T11:30:00.042Z,99677.34
2024-02-13T11:32:29.964Z,99676.31
2024-02-13T11:34:58.290Z,99682.53
2024-02-13T11:37:28.471Z,99679.00
2024-02-13T11:39:56.700Z,99678.19
2024-02-13T11:42:24.535Z,99680.66
2024-02-13T11:44:53.002Z,99684.41
2024-02-13T11:47:25.591Z,99683.81
2024-02-13T11:49:54.346Z,99687.34
2024-02-13T11:56:03.085Z,99681.94
2024-02-13T11:58:32.906Z,99684.63
2024-02-13T12:01:02.437Z,99695.44
2024-02-13T12:03:32.048Z,99683.81
2024-02-13T12:06:00.399Z,99679.50
2024-02-13T12:12:25.846Z,99676.78
2024-02-13T12:14:54.109Z,99679.50
2024-02-13T12:17:22.739Z,99679.50
2024-02-13T12:19:53.128Z,99681.34
2024-02-13T12:22:59.779Z,99678.63
2024-02-13T12:25:27.592Z,99682.19
2024-02-13T12:28:01.628Z,99673.03
2024-02-13T12:30:29.552Z,99673.84
2024-02-13T12:32:59.775Z,99673.03
2024-02-13T12:35:34.563Z,99671.13
2024-02-13T12:41:34.445Z,99674.66
2024-02-13T12:44:02.301Z,99671.13
2024-02-13T12:46:36.099Z,99667.63
2024-02-13T12:49:07.797Z,99666.56
2024-02-13T12:51:37.361Z,99661.16
2024-02-13T12:54:06.331Z,99668.44
2024-02-13T12:56:34.540Z,99662.81
2024-02-13T12:59:03.574Z,99673.63
2024-02-13T13:01:32.676Z,99669.25
2024-02-13T13:04:04.436Z,99669.25
2024-02-13T13:06:34.620Z,99670.31
2024-02-13T13:20:16.270Z,99680.31
2024-02-13T13:23:21.546Z,99683.81
2024-02-13T13:25:53.636Z,99694.63
2024-02-13T13:28:23.823Z,99693.00
2024-02-13T13:30:58.762Z,99701.91
2024-02-13T13:33:28.941Z,99697.31
2024-02-13T13:35:56.917Z,99700.84
2024-02-13T13:38:26.589Z,99703.78
2024-02-13T13:40:56.257Z,99708.13
2024-02-13T13:43:24.720Z,99702.72
2024-02-13T13:45:55.820Z,99707.31
2024-02-13T13:48:25.128Z,99712.94
2024-02-13T13:50:55.421Z,99706.50
2024-02-13T13:56:57.281Z,99730.19
2024-02-13T13:59:25.175Z,99724.78
2024-02-13T14:01:53.123Z,99727.50
2024-02-13T14:04:23.892Z,99723.97
2024-02-13T14:06:52.501Z,99715.63
2024-02-13T14:16:27.177Z,99723.72
2024-02-13T14:18:55.178Z,99721.03
2024-02-13T14:21:24.479Z,99721.84
2024-02-13T14:27:15.721Z,99718.91
2024-02-13T14:29:44.916Z,99724.31
2024-02-13T14:32:14.245Z,99724.91
2024-02-13T14:34:42.114Z,99727.63
2024-02-13T14:37:11.262Z,99734.06
2024-02-13T14:39:39.204Z,99736.53
2024-02-13T14:42:08.932Z,99742.75
2024-02-13T14:44:36.780Z,99748.41
2024-02-13T14:47:05.615Z,99745.91
2024-02-13T14:49:35.786Z,99747.00
2024-02-13T14:52:05.668Z,99746.75
2024-02-13T15:15:49.867Z,99777.97
2024-02-13T15:18:18.106Z,99778.78
2024-02-13T15:20:48.456Z,99778.78
2024-02-13T15:41:16.582Z,99801.69
2024-02-13T15:44:01.572Z,99807.91
2024-02-13T15:46:46.567Z,99808.97
2024-02-13T15:49:16.531Z,99822.47
2024-02-13T15:51:46.279Z,99822.47
2024-02-13T15:54:51.134Z,99821.84
2024-02-13T15:57:20.344Z,99830.78
2024-02-13T15:59:48.253Z,99835.34
2024-02-13T16:02:19.133Z,99839.69
2024-02-13T16:04:48.255Z,99843.47
2024-02-13T16:07:19.037Z,99839.94
2024-02-13T16:16:54.490Z,99876.31
2024-02-13T16:19:22.350Z,99888.16
2024-02-13T16:21:50.249Z,99893.53
2024-02-13T16:27:39.590Z,99895.22
2024-02-13T16:30:09.382Z,99898.72
2024-02-13T16:32:40.795Z,99911.41
2024-02-13T16:35:10.520Z,99912.22
2024-02-13T16:37:41.282Z,99913.06
2024-02-13T16:40:47.679Z,99923.84
2024-02-13T16:43:15.744Z,99923.84
2024-02-13T16:45:44.470Z,99931.94
2024-02-13T16:48:13.826Z,99934.66
2024-02-13T16:50:41.895Z,99941.09
2024-02-13T16:53:09.759Z,99937.59
2024-02-13T17:02:41.458Z,99941.31
2024-02-13T17:05:12.619Z,99943.22
2024-02-13T17:07:41.046Z,99944.25
2024-02-13T17:13:40.862Z,99956.91
2024-02-13T17:16:10.006Z,99956.91
2024-02-13T17:18:38.004Z,99963.38
2024-02-13T17:21:07.396Z,99967.97
2024-02-13T17:23:36.982Z,99970.66
2024-02-13T17:33:09.241Z,99978.97
2024-02-13T17:35:37.142Z,99986.84
2024-02-13T17:38:06.398Z,99983.09
2024-02-13T17:40:34.419Z,99994.13
2024-02-13T17:43:02.231Z,99991.19
2024-02-13T17:45:30.301Z,100000.13
2024-02-13T17:47:58.223Z,99994.72
2024-02-13T17:50:27.551Z,100002.00
2024-02-13T17:52:55.766Z,100011.97
2024-02-13T17:58:58.060Z,100008.66
2024-02-13T18:01:26.009Z,100014.88
2024-02-13T18:03:54.021Z,100013.25
2024-02-13T18:06:22.357Z,100018.66
2024-02-13T18:08:50.334Z,100015.94
2024-02-13T18:14:51.972Z,100022.41
2024-02-13T18:17:19.860Z,100018.03
2024-02-13T18:19:48.258Z,100025.09
2024-02-13T18:22:16.099Z,100020.72
2024-02-13T18:28:15.507Z,100022.00
2024-02-13T18:30:46.356Z,100028.22
2024-02-13T18:33:14.659Z,100032.81
2024-02-13T18:35:44.865Z,100041.72
2024-02-13T18:38:14.996Z,100042.78
2024-02-13T18:44:14.429Z,100046.09
2024-02-13T18:46:46.513Z,100051.50
2024-02-13T18:49:15.794Z,100051.50
2024-02-13T18:51:43.680Z,100055.81
2024-02-13T19:04:49.571Z,100074.28
2024-02-13T19:07:17.573Z,100071.81
2024-02-13T19:10:22.412Z,100073.69
2024-02-13T19:12:50.224Z,100076.41
2024-02-13T19:15:18.863Z,100072.63
2024-02-13T19:17:46.958Z,100079.69
2024-02-13T19:20:17.247Z,100081.78
2024-02-13T19:22:45.158Z,100099.44
2024-02-13T19:42:45.291Z,100102.34
2024-02-13T19:45:13.150Z,100115.84
2024-02-13T19:47:41.688Z,100110.44
2024-02-13T19:50:09.961Z,100113.13
2024-02-13T19:52:37.838Z,100114.78
2024-02-13T20:02:25.855Z,100121.22
2024-02-13T20:04:58.607Z,100122.88
2024-02-13T20:07:26.671Z,100125.81
2024-02-13T20:13:26.826Z,100121.69
2024-02-13T20:15:54.724Z,100121.06
2024-02-13T20:18:23.092Z,100122.94
2024-02-13T20:20:51.406Z,100122.13
2024-02-13T20:23:20.925Z,100126.69
2024-02-13T20:29:11.060Z,100136.66
2024-02-13T20:31:38.877Z,100133.09
2024-02-13T20:34:06.980Z,100138.50
2024-02-13T20:36:38.297Z,100137.69
2024-02-13T20:39:11.462Z,100137.06
2024-02-13T20:48:33.015Z,100150.56
2024-02-13T20:51:02.084Z,100150.78
2024-02-13T20:53:31.901Z,100147.25
2024-02-13T21:03:03.325Z,100158.66
2024-02-13T21:05:31.146Z,100158.66
2024-02-13T21:07:59.071Z,100162.41
2024-02-13T21:10:28.653Z,100161.34
2024-02-13T21:12:56.579Z,100167.81
2024-02-13T21:15:24.495Z,100165.13
2024-02-13T21:17:53.253Z,100168.84
2024-02-13T21:20:28.625Z,100167.19
2024-02-13T21:23:13.700Z,100167.00
2024-02-13T21:29:44.143Z,100170.97
2024-02-13T21:32:13.417Z,100174.25
2024-02-13T21:34:41.292Z,100179.06
2024-02-13T21:37:09.124Z,100175.28
2024-02-13T21:39:38.618Z,100177.38
2024-02-13T21:42:06.795Z,100180.09
2024-02-13T21:44:35.128Z,100186.53
2024-02-13T21:47:03.052Z,100189.25
2024-02-13T21:49:32.751Z,100191.94
2024-02-13T21:52:00.704Z,100196.50
2024-02-13T21:54:28.577Z,100202.94
2024-02-13T22:07:33.226Z,100212.47
2024-02-13T22:17:24.974Z,100224.31
2024-02-13T22:19:52.911Z,100220.56
2024-02-13T22:22:20.782Z,100225.34
2024-02-13T22:24:51.853Z,100224.31
2024-02-13T22:44:47.442Z,100234.72
2024-02-13T22:47:15.326Z,100240.34
2024-02-13T22:49:43.244Z,100239.28
2024-02-13T22:52:11.089Z,100240.09
2024-02-13T22:54:38.942Z,100237.66
2024-02-13T23:04:05.173Z,100237.03
2024-02-13T23:06:33.410Z,100238.06
2024-02-13T23:09:03.083Z,100238.91
2024-02-13T23:22:18.085Z,100241.81
2024-02-13T23:24:46.009Z,100238.06
2024-02-13T23:30:45.528Z,100247.19
2024-02-13T23:33:13.700Z,100242.84
2024-02-13T23:35:42.990Z,100241.81
2024-02-13T23:38:12.242Z,100249.06
2024-02-13T23:44:12.203Z,100252.00
2024-02-13T23:46:40.792Z,100260.94
2024-02-13T23:49:10.335Z,100265.50
2024-02-13T23:51:40.554Z,100260.94
2024-02-13T23:54:10.253Z,100272.53
